createdAt,value
2023-07-24T00:00:40.928Z,93695.38
2023-07-24T00:03:08.816Z,93696.78
2023-07-24T00:05:36.430Z,93701.88
2023-07-24T00:08:03.992Z,93694.41
2023-07-24T00:10:31.695Z,93698.47
2023-07-24T00:12:59.207Z,93698.22
2023-07-24T00:15:26.611Z,93697.37
2023-07-24T00:17:54.346Z,93699.28
2023-07-24T00:20:22.163Z,93697.59
2023-07-24T00:22:49.428Z,93698.09
2023-07-24T00:25:17.226Z,93698.84
2023-07-24T00:27:44.697Z,93704.00
2023-07-24T00:30:13.591Z,93703.06
2023-07-24T00:32:41.497Z,93695.00
2023-07-24T00:35:09.824Z,93688.13
2023-07-24T00:37:38.249Z,93688.81
2023-07-24T00:40:06.629Z,93691.34
2023-07-24T00:42:33.949Z,93689.78
2023-07-24T00:45:04.123Z,93682.09
2023-07-24T00:47:33.303Z,93676.44
2023-07-24T00:50:00.669Z,93675.06
2023-07-24T00:52:27.948Z,93687.28
2023-07-24T00:54:56.054Z,93681.75
2023-07-24T00:57:24.662Z,93688.16
2023-07-24T00:59:52.225Z,93684.56
2023-07-24T01:02:19.832Z,93682.97
2023-07-24T01:04:47.894Z,93678.56
2023-07-24T01:07:17.815Z,93678.50
2023-07-24T01:09:45.654Z,93686.09
2023-07-24T01:12:56.593Z,93677.16
2023-07-24T01:15:32.594Z,93679.62
2023-07-24T01:18:14.995Z,93666.16
2023-07-24T01:20:49.758Z,93671.16
2023-07-24T01:23:39.052Z,93664.84
2023-07-24T01:26:08.293Z,93669.09
2023-07-24T01:28:35.528Z,93663.84
2023-07-24T01:31:03.097Z,93671.28
2023-07-24T01:33:32.912Z,93675.78
2023-07-24T01:36:03.742Z,93674.56
2023-07-24T01:38:33.660Z,93671.88
2023-07-24T01:41:01.729Z,93671.28
2023-07-24T01:43:30.993Z,93676.63
2023-07-24T01:45:59.207Z,93678.50
2023-07-24T01:48:26.702Z,93680.88
2023-07-24T01:50:55.396Z,93686.66
2023-07-24T01:53:23.088Z,93685.09
2023-07-24T01:55:50.396Z,93688.00
2023-07-24T01:58:17.768Z,93680.91
2023-07-24T02:00:45.464Z,93685.38
2023-07-24T02:03:12.710Z,93679.00
2023-07-24T02:05:40.401Z,93675.75
2023-07-24T02:08:07.735Z,93669.44
2023-07-24T02:10:38.994Z,93675.97
2023-07-24T02:13:08.786Z,93675.09
2023-07-24T02:15:37.453Z,93679.97
2023-07-24T02:18:05.029Z,93681.75
2023-07-24T02:20:32.354Z,93683.81
2023-07-24T02:22:59.625Z,93676.31
2023-07-24T02:25:28.280Z,93673.41
2023-07-24T02:27:55.679Z,93678.72
2023-07-24T02:30:24.588Z,93679.53
2023-07-24T02:32:52.520Z,93669.47
2023-07-24T02:35:19.895Z,93674.75
2023-07-24T02:37:47.227Z,93675.53
2023-07-24T02:40:15.238Z,93668.94
2023-07-24T02:42:42.910Z,93670.53
2023-07-24T02:45:12.301Z,93669.78
2023-07-24T02:47:40.101Z,93667.91
2023-07-24T02:50:07.975Z,93667.37
2023-07-24T02:52:35.375Z,93670.28
2023-07-24T02:55:03.180Z,93663.91
2023-07-24T02:57:30.753Z,93665.78
2023-07-24T02:59:58.173Z,93668.16
2023-07-24T03:02:26.263Z,93665.22
2023-07-24T03:04:53.842Z,93664.41
2023-07-24T03:07:21.309Z,93667.87
2023-07-24T03:09:49.287Z,93666.06
2023-07-24T03:12:16.761Z,93660.53
2023-07-24T03:14:44.626Z,93666.06
2023-07-24T03:17:12.611Z,93657.09
2023-07-24T03:19:40.102Z,93660.53
2023-07-24T03:22:07.678Z,93662.91
2023-07-24T03:24:37.109Z,93660.00
2023-07-24T03:27:04.946Z,93660.00
2023-07-24T03:29:32.376Z,93658.41
2023-07-24T03:32:00.689Z,93659.22
2023-07-24T03:34:28.210Z,93662.63
2023-07-24T03:36:55.582Z,93665.00
2023-07-24T03:39:24.102Z,93666.06
2023-07-24T03:41:52.848Z,93668.72
2023-07-24T03:44:20.280Z,93662.13
2023-07-24T03:46:48.129Z,93660.50
2023-07-24T03:49:15.562Z,93660.25
2023-07-24T03:51:43.058Z,93661.59
2023-07-24T03:54:11.945Z,93669.50
2023-07-24T03:56:39.251Z,93675.31
2023-07-24T03:59:07.314Z,93683.78
2023-07-24T04:01:35.450Z,93682.19
2023-07-24T04:04:03.235Z,93677.44
2023-07-24T04:06:31.470Z,93679.81
2023-07-24T04:08:59.638Z,93677.19
2023-07-24T04:11:27.486Z,93671.09
2023-07-24T04:13:54.890Z,93671.62
2023-07-24T04:16:22.398Z,93668.47
2023-07-24T04:18:50.110Z,93669.50
2023-07-24T04:21:17.431Z,93669.94
2023-07-24T04:23:44.867Z,93666.47
2023-07-24T04:26:12.599Z,93660.75
2023-07-24T04:28:39.942Z,93666.34
2023-07-24T04:31:07.456Z,93671.62
2023-07-24T04:33:35.148Z,93667.41
2023-07-24T04:36:02.741Z,93676.66
2023-07-24T04:38:30.398Z,93675.06
2023-07-24T04:40:58.663Z,93671.34
2023-07-24T04:43:26.547Z,93674.25
2023-07-24T04:45:53.833Z,93676.88
2023-07-24T04:48:21.843Z,93679.25
2023-07-24T04:50:55.194Z,93677.91
2023-07-24T04:53:23.487Z,93673.16
2023-07-24T04:55:50.875Z,93667.56
2023-07-24T04:58:18.682Z,93671.06
2023-07-24T05:00:46.532Z,93667.59
2023-07-24T05:03:14.017Z,93672.69
2023-07-24T05:05:45.070Z,93671.06
2023-07-24T05:08:14.873Z,93669.72
2023-07-24T05:10:42.472Z,93664.63
2023-07-24T05:13:11.984Z,93672.53
2023-07-24T05:15:41.180Z,93673.22
2023-07-24T05:18:08.486Z,93673.44
2023-07-24T05:20:35.916Z,93664.88
2023-07-24T05:23:04.272Z,93660.84
2023-07-24T05:25:31.835Z,93663.47
2023-07-24T05:27:59.432Z,93667.53
2023-07-24T05:30:27.205Z,93656.75
2023-07-24T05:32:54.639Z,93656.66
2023-07-24T05:35:22.204Z,93661.03
2023-07-24T05:37:50.337Z,93657.88
2023-07-24T05:40:18.056Z,93659.34
2023-07-24T05:42:45.565Z,93658.28
2023-07-24T05:45:13.657Z,93662.41
2023-07-24T05:47:41.307Z,93651.31
2023-07-24T05:50:09.579Z,93646.13
2023-07-24T05:52:37.343Z,93649.19
2023-07-24T05:55:05.090Z,93649.12
2023-07-24T05:57:32.580Z,93643.91
2023-07-24T06:00:00.462Z,93640.62
2023-07-24T06:02:28.124Z,93637.22
2023-07-24T06:04:55.898Z,93635.44
2023-07-24T06:07:23.480Z,93631.19
2023-07-24T06:09:51.401Z,93632.81
2023-07-24T06:12:19.355Z,93629.22
2023-07-24T06:14:47.006Z,93622.09
2023-07-24T06:17:14.599Z,93621.44
2023-07-24T06:19:42.404Z,93611.97
2023-07-24T06:22:10.150Z,93617.88
2023-07-24T06:24:37.754Z,93614.91
2023-07-24T06:27:07.881Z,93612.66
2023-07-24T06:29:40.134Z,93605.47
2023-07-24T06:32:09.485Z,93604.53
2023-07-24T06:34:37.241Z,93607.41
2023-07-24T06:37:20.586Z,93600.81
2023-07-24T06:39:50.370Z,93598.81
2023-07-24T06:42:17.990Z,93591.31
2023-07-24T06:44:45.458Z,93600.88
2023-07-24T06:47:13.721Z,93594.62
2023-07-24T06:49:41.195Z,93593.06
2023-07-24T06:52:08.773Z,93597.06
2023-07-24T06:54:36.628Z,93592.63
2023-07-24T06:57:04.320Z,93591.69
2023-07-24T06:59:32.194Z,93588.59
2023-07-24T07:01:59.990Z,93593.66
2023-07-24T07:04:27.552Z,93584.56
2023-07-24T07:06:55.299Z,93582.31
2023-07-24T07:09:23.284Z,93585.97
2023-07-24T07:11:51.488Z,93583.41
2023-07-24T07:14:19.166Z,93588.56
2023-07-24T07:16:48.977Z,93585.13
2023-07-24T07:19:17.077Z,93591.09
2023-07-24T07:21:44.665Z,93584.53
2023-07-24T07:24:12.767Z,93579.72
2023-07-24T07:26:40.511Z,93580.31
2023-07-24T07:29:08.919Z,93583.66
2023-07-24T07:31:37.195Z,93573.91
2023-07-24T07:34:04.766Z,93578.63
2023-07-24T07:36:32.961Z,93574.19
2023-07-24T07:39:00.985Z,93575.94
2023-07-24T07:41:29.888Z,93583.16
2023-07-24T07:43:57.510Z,93576.94
2023-07-24T07:46:26.434Z,93573.44
2023-07-24T07:48:54.517Z,93586.88
2023-07-24T07:51:22.499Z,93576.03
2023-07-24T07:53:50.622Z,93578.16
2023-07-24T07:56:18.409Z,93573.44
2023-07-24T07:58:46.048Z,93570.03
2023-07-24T08:01:14.069Z,93574.66
2023-07-24T08:03:42.896Z,93577.00
2023-07-24T08:06:11.401Z,93583.37
2023-07-24T08:08:39.654Z,93577.47
2023-07-24T08:11:07.623Z,93577.69
2023-07-24T08:13:35.945Z,93578.00
2023-07-24T08:16:04.624Z,93583.37
2023-07-24T08:18:32.579Z,93576.09
2023-07-24T08:21:00.108Z,93574.41
2023-07-24T08:23:27.616Z,93578.16
2023-07-24T08:25:56.085Z,93570.53
2023-07-24T08:28:23.920Z,93566.22
2023-07-24T08:31:06.696Z,93560.31
2023-07-24T08:33:35.318Z,93562.50
2023-07-24T08:36:05.441Z,93561.16
2023-07-24T08:38:34.428Z,93553.16
2023-07-24T08:41:06.898Z,93550.12
2023-07-24T08:43:36.604Z,93546.50
2023-07-24T08:46:05.857Z,93543.88
2023-07-24T08:48:39.615Z,93542.53
2023-07-24T08:51:09.968Z,93536.91
2023-07-24T08:53:39.597Z,93538.28
2023-07-24T08:56:09.448Z,93534.12
2023-07-24T08:58:37.559Z,93539.63
2023-07-24T09:01:05.860Z,93529.63
2023-07-24T09:03:34.785Z,93535.59
2023-07-24T09:06:05.269Z,93531.78
2023-07-24T09:08:35.140Z,93531.25
2023-07-24T09:11:05.115Z,93525.72
2023-07-24T09:13:32.874Z,93524.72
2023-07-24T09:16:00.811Z,93520.63
2023-07-24T09:18:41.277Z,93519.66
2023-07-24T09:21:09.098Z,93518.78
2023-07-24T09:23:37.793Z,93517.72
2023-07-24T09:26:09.265Z,93510.94
2023-07-24T09:28:38.013Z,93511.41
2023-07-24T09:31:06.265Z,93511.09
2023-07-24T09:33:39.178Z,93503.22
2023-07-24T09:36:11.205Z,93499.31
2023-07-24T09:38:40.284Z,93496.12
2023-07-24T09:41:08.637Z,93494.59
2023-07-24T09:43:41.544Z,93495.81
2023-07-24T09:46:10.872Z,93492.59
2023-07-24T09:48:42.214Z,93490.28
2023-07-24T09:51:14.841Z,93482.94
2023-07-24T09:53:52.682Z,93482.22
2023-07-24T09:56:26.034Z,93481.00
2023-07-24T09:59:01.676Z,93474.03
2023-07-24T10:01:31.506Z,93467.19
2023-07-24T10:04:01.468Z,93461.41
2023-07-24T10:06:31.575Z,93462.56
2023-07-24T10:09:00.086Z,93464.75
2023-07-24T10:11:27.894Z,93459.41
2023-07-24T10:13:56.078Z,93457.88
2023-07-24T10:16:24.557Z,93455.69
2023-07-24T10:18:52.024Z,93451.41
2023-07-24T10:21:19.586Z,93455.50
2023-07-24T10:23:47.901Z,93443.72
2023-07-24T10:26:17.345Z,93455.44
2023-07-24T10:28:48.991Z,93462.37
2023-07-24T10:31:30.016Z,93455.91
2023-07-24T10:34:06.012Z,93449.28
2023-07-24T10:36:38.175Z,93448.31
2023-07-24T10:39:15.439Z,93447.84
2023-07-24T10:41:46.793Z,93442.94
2023-07-24T10:44:14.974Z,93438.34
2023-07-24T10:46:44.226Z,93439.16
2023-07-24T10:49:13.735Z,93433.03
2023-07-24T10:51:41.286Z,93439.22
2023-07-24T10:54:09.087Z,93439.28
2023-07-24T10:56:39.006Z,93436.84
2023-07-24T10:59:07.942Z,93430.59
2023-07-24T11:01:36.513Z,93436.94
2023-07-24T11:04:04.983Z,93442.81
2023-07-24T11:06:32.517Z,93431.94
2023-07-24T11:09:01.441Z,93430.66
2023-07-24T11:11:31.149Z,93420.41
2023-07-24T11:13:59.281Z,93423.69
2023-07-24T11:16:27.723Z,93422.03
2023-07-24T11:18:57.100Z,93413.66
2023-07-24T11:21:25.643Z,93424.53
2023-07-24T11:23:56.239Z,93425.00
2023-07-24T11:26:25.914Z,93409.47
2023-07-24T11:28:54.572Z,93404.25
2023-07-24T11:31:22.586Z,93405.03
2023-07-24T11:33:51.749Z,93405.88
2023-07-24T11:36:20.456Z,93402.75
2023-07-24T11:38:50.207Z,93402.47
2023-07-24T11:41:26.804Z,93400.00
2023-07-24T11:43:54.811Z,93394.84
2023-07-24T11:46:27.420Z,93390.31
2023-07-24T11:48:58.804Z,93389.22
2023-07-24T11:51:30.800Z,93386.88
2023-07-24T11:54:09.023Z,93385.63
2023-07-24T11:56:37.644Z,93386.53
2023-07-24T11:59:13.191Z,93392.37
2023-07-24T12:01:41.247Z,93379.88
2023-07-24T12:04:09.407Z,93371.50
2023-07-24T12:06:37.147Z,93380.88
2023-07-24T12:09:08.867Z,93376.44
2023-07-24T12:11:45.568Z,93378.66
2023-07-24T12:14:15.462Z,93385.81
2023-07-24T12:16:43.440Z,93374.34
2023-07-24T12:19:10.865Z,93380.41
2023-07-24T12:21:38.280Z,93363.75
2023-07-24T12:24:06.447Z,93364.31
2023-07-24T12:26:33.970Z,93366.00
2023-07-24T12:29:01.928Z,93363.94
2023-07-24T12:31:30.300Z,93367.75
2023-07-24T12:33:58.251Z,93368.97
2023-07-24T12:36:25.819Z,93367.03
2023-07-24T12:38:53.597Z,93362.66
2023-07-24T12:41:21.100Z,93368.22
2023-07-24T12:43:48.598Z,93359.28
2023-07-24T12:46:16.485Z,93360.41
2023-07-24T12:48:43.952Z,93356.13
2023-07-24T12:51:11.370Z,93350.75
2023-07-24T12:53:44.073Z,93351.62
2023-07-24T12:56:26.410Z,93349.28
2023-07-24T12:58:56.640Z,93345.41
2023-07-24T13:01:25.330Z,93342.31
2023-07-24T13:03:53.384Z,93336.88
2023-07-24T13:06:21.300Z,93333.75
2023-07-24T13:08:49.134Z,93340.34
2023-07-24T13:11:16.662Z,93345.00
2023-07-24T13:13:45.426Z,93332.22
2023-07-24T13:16:12.885Z,93337.66
2023-07-24T13:18:40.383Z,93332.59
2023-07-24T13:21:09.275Z,93335.34
2023-07-24T13:23:36.651Z,93323.28
2023-07-24T13:26:04.773Z,93321.34
2023-07-24T13:28:32.549Z,93320.97
2023-07-24T13:31:00.122Z,93328.75
2023-07-24T13:33:27.674Z,93323.31
2023-07-24T13:35:55.519Z,93329.91
2023-07-24T13:38:22.939Z,93324.81
2023-07-24T13:40:51.087Z,93317.09
2023-07-24T13:43:20.054Z,93310.88
2023-07-24T13:45:47.609Z,93305.03
2023-07-24T13:48:15.015Z,93287.88
2023-07-24T13:50:42.858Z,93295.66
2023-07-24T13:53:10.543Z,93307.66
2023-07-24T13:55:37.969Z,93297.53
2023-07-24T13:58:05.823Z,93293.75
2023-07-24T14:00:33.647Z,93288.31
2023-07-24T14:03:01.373Z,93289.47
2023-07-24T14:05:30.007Z,93278.94
2023-07-24T14:07:57.454Z,93280.16
2023-07-24T14:10:25.224Z,93277.34
2023-07-24T14:12:52.665Z,93271.44
2023-07-24T14:15:20.015Z,93272.19
2023-07-24T14:17:48.006Z,93272.53
2023-07-24T14:20:15.507Z,93278.41
2023-07-24T14:22:43.148Z,93278.09
2023-07-24T14:25:10.759Z,93273.41
2023-07-24T14:27:38.262Z,93271.44
2023-07-24T14:30:06.598Z,93274.19
2023-07-24T14:32:34.413Z,93264.88
2023-07-24T14:35:01.964Z,93259.19
2023-07-24T14:37:29.549Z,93269.25
2023-07-24T14:39:57.315Z,93265.41
2023-07-24T14:42:24.796Z,93273.81
2023-07-24T14:44:52.254Z,93272.31
2023-07-24T14:47:20.078Z,93263.41
2023-07-24T14:49:47.581Z,93274.69
2023-07-24T14:52:15.047Z,93260.69
2023-07-24T14:54:42.815Z,93255.47
2023-07-24T14:57:23.488Z,93257.53
2023-07-24T14:59:52.481Z,93256.34
2023-07-24T15:02:20.173Z,93260.28
2023-07-24T15:04:47.634Z,93262.94
2023-07-24T15:07:15.588Z,93260.31
2023-07-24T15:09:43.731Z,93256.34
2023-07-24T15:12:11.343Z,93266.59
2023-07-24T15:14:39.139Z,93262.38
2023-07-24T15:17:06.609Z,93255.22
2023-07-24T15:19:34.244Z,93260.94
2023-07-24T15:22:02.135Z,93255.44
2023-07-24T15:24:29.680Z,93252.59
2023-07-24T15:26:57.144Z,93239.91
2023-07-24T15:29:24.974Z,93232.28
2023-07-24T15:31:52.750Z,93229.84
2023-07-24T15:34:20.278Z,93232.50
2023-07-24T15:36:48.077Z,93239.19
2023-07-24T15:39:15.462Z,93240.13
2023-07-24T15:41:42.937Z,93238.06
2023-07-24T15:44:10.676Z,93234.19
2023-07-24T15:46:38.168Z,93232.94
2023-07-24T15:49:05.528Z,93240.22
2023-07-24T15:51:33.935Z,93245.53
2023-07-24T15:54:03.660Z,93237.59
2023-07-24T15:56:31.052Z,93233.81
2023-07-24T15:58:58.799Z,93236.50
2023-07-24T16:01:28.098Z,93243.19
2023-07-24T16:03:56.107Z,93244.12
2023-07-24T16:06:23.663Z,93240.41
2023-07-24T16:08:51.035Z,93251.81
2023-07-24T16:11:18.864Z,93246.84
2023-07-24T16:13:46.377Z,93254.28
2023-07-24T16:16:15.394Z,93252.97
2023-07-24T16:18:43.561Z,93254.03
2023-07-24T16:21:11.047Z,93252.41
2023-07-24T16:23:38.609Z,93256.41
2023-07-24T16:26:06.456Z,93238.91
2023-07-24T16:28:34.029Z,93253.84
2023-07-24T16:31:01.669Z,93264.16
2023-07-24T16:33:31.212Z,93261.75
2023-07-24T16:35:58.909Z,93256.06
2023-07-24T16:38:26.326Z,93252.47
2023-07-24T16:40:54.324Z,93255.28
2023-07-24T16:43:23.579Z,93265.50
2023-07-24T16:48:23.330Z,93265.09
2023-07-24T16:50:50.917Z,93269.16
2023-07-24T16:53:18.382Z,93271.84
2023-07-24T16:55:46.120Z,93266.25
2023-07-24T16:58:13.709Z,93268.50
2023-07-24T17:00:41.284Z,93269.22
2023-07-24T17:03:09.466Z,93265.84
2023-07-24T17:05:37.866Z,93268.06
2023-07-24T17:08:05.757Z,93274.78
2023-07-24T17:10:45.299Z,93271.66
2023-07-24T17:13:13.341Z,93271.72
2023-07-24T17:15:41.353Z,93268.16
2023-07-24T17:18:08.862Z,93274.44
2023-07-24T17:20:36.694Z,93273.91
2023-07-24T17:23:04.294Z,93271.41
2023-07-24T17:25:31.780Z,93272.41
2023-07-24T17:27:59.377Z,93277.97
2023-07-24T17:30:27.150Z,93276.97
2023-07-24T17:32:55.222Z,93291.19
2023-07-24T17:35:23.033Z,93278.69
2023-07-24T17:37:50.772Z,93280.63
2023-07-24T17:40:18.797Z,93280.41
2023-07-24T17:42:46.149Z,93287.00
2023-07-24T17:45:16.091Z,93295.78
2023-07-24T17:48:05.288Z,93302.81
2023-07-24T17:50:35.658Z,93300.38
2023-07-24T17:53:03.879Z,93302.19
2023-07-24T17:55:31.685Z,93308.31
2023-07-24T17:57:59.864Z,93311.28
2023-07-24T18:00:28.204Z,93306.12
2023-07-24T18:02:56.098Z,93301.06
2023-07-24T18:05:23.721Z,93304.22
2023-07-24T18:07:52.790Z,93309.47
2023-07-24T18:10:21.882Z,93303.69
2023-07-24T18:12:50.077Z,93299.53
2023-07-24T18:15:17.721Z,93297.72
2023-07-24T18:17:46.864Z,93302.03
2023-07-24T18:20:15.007Z,93305.44
2023-07-24T18:22:44.096Z,93305.69
2023-07-24T18:25:11.933Z,93304.59
2023-07-24T18:27:40.206Z,93292.59
2023-07-24T18:30:08.649Z,93292.59
2023-07-24T18:32:40.229Z,93301.53
2023-07-24T18:35:07.800Z,93311.41
2023-07-24T18:37:35.534Z,93315.06
2023-07-24T18:40:03.016Z,93313.97
2023-07-24T18:42:34.619Z,93321.03
2023-07-24T18:45:03.053Z,93314.16
2023-07-24T18:47:31.851Z,93313.47
2023-07-24T18:49:59.375Z,93310.88
2023-07-24T18:52:27.309Z,93315.47
2023-07-24T18:54:54.787Z,93311.47
2023-07-24T18:57:22.552Z,93311.06
2023-07-24T18:59:50.419Z,93321.72
2023-07-24T19:02:18.222Z,93322.19
2023-07-24T19:04:45.721Z,93332.25
2023-07-24T19:07:14.122Z,93330.31
2023-07-24T19:09:41.627Z,93327.03
2023-07-24T19:12:09.315Z,93331.28
2023-07-24T19:14:37.188Z,93337.41
2023-07-24T19:17:05.073Z,93342.00
2023-07-24T19:19:32.748Z,93331.69
2023-07-24T19:22:00.607Z,93335.69
2023-07-24T19:24:28.240Z,93339.50
2023-07-24T19:26:55.709Z,93336.72
2023-07-24T19:29:23.508Z,93328.88
2023-07-24T19:31:52.241Z,93316.91
2023-07-24T19:34:19.969Z,93318.84
2023-07-24T19:36:47.831Z,93321.91
2023-07-24T19:39:15.326Z,93325.47
2023-07-24T19:41:42.787Z,93340.50
2023-07-24T19:44:10.829Z,93345.88
2023-07-24T19:46:38.234Z,93345.13
2023-07-24T19:49:05.846Z,93349.22
2023-07-24T19:51:33.925Z,93350.19
2023-07-24T19:54:01.607Z,93343.31
2023-07-24T19:56:29.002Z,93351.75
2023-07-24T19:58:56.817Z,93350.22
2023-07-24T20:01:27.183Z,93346.28
2023-07-24T20:03:55.106Z,93344.41
2023-07-24T20:06:22.607Z,93344.25
2023-07-24T20:08:50.208Z,93346.94
2023-07-24T20:11:18.046Z,93337.34
2023-07-24T20:13:45.594Z,93346.59
2023-07-24T20:16:13.209Z,93340.63
2023-07-24T20:18:41.114Z,93335.78
2023-07-24T20:21:08.511Z,93344.66
2023-07-24T20:23:36.083Z,93333.59
2023-07-24T20:26:04.174Z,93327.66
2023-07-24T20:28:31.637Z,93323.94
2023-07-24T20:30:59.701Z,93335.94
2023-07-24T20:33:28.016Z,93329.47
2023-07-24T20:35:55.464Z,93321.44
2023-07-24T20:38:28.334Z,93324.44
2023-07-24T20:40:59.259Z,93329.94
2023-07-24T20:43:26.727Z,93318.34
2023-07-24T20:45:54.401Z,93326.25
2023-07-24T20:48:23.178Z,93325.69
2023-07-24T20:50:50.843Z,93330.38
2023-07-24T20:53:18.268Z,93327.75
2023-07-24T20:55:46.114Z,93329.31
2023-07-24T20:58:13.708Z,93321.47
2023-07-24T21:00:41.262Z,93326.81
2023-07-24T21:03:09.138Z,93311.31
2023-07-24T21:05:38.094Z,93317.97
2023-07-24T21:08:06.373Z,93314.84
2023-07-24T21:10:34.157Z,93311.03
2023-07-24T21:13:01.611Z,93298.19
2023-07-24T21:15:29.121Z,93293.34
2023-07-24T21:17:57.006Z,93291.31
2023-07-24T21:20:24.608Z,93305.56
2023-07-24T21:22:52.181Z,93304.62
2023-07-24T21:25:20.018Z,93296.09
2023-07-24T21:27:47.483Z,93306.44
2023-07-24T21:30:15.334Z,93309.31
2023-07-24T21:32:43.260Z,93303.50
2023-07-24T21:35:11.087Z,93312.16
2023-07-24T21:37:40.242Z,93299.22
2023-07-24T21:40:09.312Z,93302.13
2023-07-24T21:42:36.767Z,93297.06
2023-07-24T21:45:04.768Z,93288.09
2023-07-24T21:47:32.553Z,93279.66
2023-07-24T21:50:00.058Z,93279.06
2023-07-24T21:52:27.454Z,93275.09
2023-07-24T21:54:55.296Z,93266.62
2023-07-24T21:57:22.847Z,93274.72
2023-07-24T21:59:50.297Z,93273.13
2023-07-24T22:02:18.089Z,93274.44
2023-07-24T22:04:46.049Z,93279.75
2023-07-24T22:07:13.495Z,93277.69
2023-07-24T22:09:40.895Z,93280.69
2023-07-24T22:12:08.971Z,93281.59
2023-07-24T22:14:36.607Z,93279.69
2023-07-24T22:17:04.385Z,93278.28
2023-07-24T22:19:32.222Z,93276.50
2023-07-24T22:21:59.793Z,93274.25
2023-07-24T22:24:27.250Z,93274.16
2023-07-24T22:26:54.978Z,93272.00
2023-07-24T22:29:22.337Z,93275.16
2023-07-24T22:31:49.731Z,93272.59
2023-07-24T22:34:17.523Z,93274.09
2023-07-24T22:36:45.140Z,93278.16
2023-07-24T22:39:12.550Z,93276.31
2023-07-24T22:41:40.392Z,93270.84
2023-07-24T22:44:07.856Z,93269.84
2023-07-24T22:46:35.358Z,93264.75
2023-07-24T22:49:03.280Z,93274.53
2023-07-24T22:51:30.990Z,93271.03
2023-07-24T22:53:59.094Z,93266.97
2023-07-24T22:56:27.094Z,93261.38
2023-07-24T22:59:03.739Z,93259.09
2023-07-24T23:01:33.376Z,93256.88
2023-07-24T23:04:01.341Z,93254.09
2023-07-24T23:06:28.851Z,93253.91
2023-07-24T23:08:56.574Z,93250.75
2023-07-24T23:11:23.914Z,93243.00
2023-07-24T23:13:51.289Z,93239.94
2023-07-24T23:16:18.899Z,93234.53
2023-07-24T23:18:46.243Z,93229.72
2023-07-24T23:21:13.686Z,93237.38
2023-07-24T23:23:41.431Z,93233.75
2023-07-24T23:26:09.002Z,93230.09
2023-07-24T23:28:36.388Z,93237.19
2023-07-24T23:31:05.503Z,93228.25
2023-07-24T23:33:37.354Z,93231.97
2023-07-24T23:36:08.211Z,93231.28
2023-07-24T23:38:36.979Z,93233.09
2023-07-24T23:41:06.496Z,93235.88
2023-07-24T23:43:34.649Z,93233.78
2023-07-24T23:46:09.145Z,93238.31
2023-07-24T23:48:37.149Z,93231.63
2023-07-24T23:51:04.533Z,93230.78
2023-07-24T23:53:31.958Z,93225.91
2023-07-24T23:55:59.766Z,93218.34
2023-07-24T23:58:27.243Z,93230.84
